Time;durP1;ratioP1;P1;durP2;ratioP2;P2;SDS_P1;SDS_P2;PMS_P1;PMS_P2;Temp;Humidity;BMP_temperature;BMP_pressure;BME280_temperature;BME280_humidity;BME280_pressure;Samples;Min_cycle;Max_cycle;Signal;HPM_P1;HPM_P2
2023/04/05 00:01:37;;;;;;;;;;;6.60;80.80;;;-151.14;100.00;62537.16;4997068;28;19921;-90
2023/04/05 00:04:06;;;;;;;;;;;6.70;80.90;;;-151.14;100.00;62537.16;4997162;28;19921;-91
2023/04/05 00:06:36;;;;;;;;;;;6.60;80.80;;;-151.14;100.00;62537.16;4997307;28;19966;-90
2023/04/05 00:09:04;;;;;;;;;;;6.60;80.90;;;-151.14;100.00;62537.16;4996846;28;20160;-91
2023/04/05 00:11:34;;;;;;;;;;;6.60;80.80;;;-151.14;100.00;62537.16;4996839;28;19928;-91
2023/04/05 00:14:02;;;;;;;;;;;6.60;80.80;;;-151.14;100.00;62537.16;4996900;28;19921;-91
2023/04/05 00:16:30;;;;;;;;;;;6.60;80.80;;;-151.14;100.00;62537.16;4996764;28;20209;-90
2023/04/05 00:19:00;;;;;;;;;;;6.60;80.90;;;-151.14;100.00;62537.16;4996681;28;19928;-90
2023/04/05 00:21:29;;;;;;;;;;;6.60;80.90;;;-151.14;100.00;62537.16;4996774;28;20228;-89
2023/04/05 00:23:57;;;;;;;;;;;6.60;80.80;;;-151.14;100.00;62537.16;4996767;28;19935;-90
2023/04/05 00:26:25;;;;;;;;;;;6.60;80.90;;;-151.14;100.00;62537.16;4996764;28;19922;-90
2023/04/05 00:28:59;;;;;;;;;;;6.60;80.80;;;-151.14;100.00;62537.16;4996772;28;19928;-89
2023/04/05 00:31:27;;;;;;;;;;;6.60;80.90;;;-151.14;100.00;62537.16;4996334;28;19921;-90
2023/04/05 00:33:55;;;;;;;;;;;6.60;80.90;;;-151.14;100.00;62537.16;4996520;28;19921;-90
2023/04/05 00:36:23;;;;;;;;;;;6.60;81.00;;;-151.14;100.00;62537.16;4996603;28;19921;-90
2023/04/05 00:38:51;;;;;;;;;;;6.60;80.90;;;-151.14;100.00;62537.16;4995726;28;19921;-90
2023/04/05 00:41:19;;;;;;;;;;;6.60;80.80;;;-151.14;100.00;62537.16;4996544;28;19921;-91
2023/04/05 00:43:47;;;;;;;;;;;6.60;80.90;;;-151.14;100.00;62537.16;4996466;28;19921;-90
2023/04/05 00:46:16;;;;;;;;;;;6.60;80.90;;;-151.14;100.00;62537.16;4996449;28;19921;-90
2023/04/05 00:48:45;;;;;;;;;;;6.60;81.00;;;-151.14;100.00;62537.16;4996332;28;19928;-90
2023/04/05 00:51:14;;;;;;;;;;;6.60;80.90;;;-151.14;100.00;62537.16;4996052;28;19922;-90
2023/04/05 00:53:43;;;;;;;;;;;6.60;80.90;;;-151.14;100.00;62537.16;4996533;28;19921;-90
2023/04/05 00:56:12;;;;;;;;;;;6.60;80.80;;;-151.14;100.00;62537.16;4996047;28;19922;-90
2023/04/05 00:58:41;;;;;;;;;;;6.60;80.90;;;-151.14;100.00;62537.16;4996396;28;19944;-90
2023/04/05 01:01:12;;;;;;;;;;;6.60;81.80;;;-151.14;100.00;62537.16;4996185;28;19928;-90
2023/04/05 01:03:45;;;;;;;;;;;6.60;81.00;;;-151.14;100.00;62537.16;4996326;28;19921;-90
2023/04/05 01:06:17;;;;;;;;;;;6.60;81.00;;;-151.14;100.00;62537.16;4996116;28;19936;-90
2023/04/05 01:08:49;;;;;;;;;;;6.60;81.00;;;-151.14;100.00;62537.16;4996075;28;19921;-90
2023/04/05 01:11:17;;;;;;;;;;;6.60;80.90;;;-151.14;100.00;62537.16;4995990;28;19922;-90
2023/04/05 01:13:46;;;;;;;;;;;6.60;80.90;;;-151.14;100.00;62537.16;4996029;28;19928;-90
2023/04/05 01:16:14;;;;;;;;;;;6.60;80.90;;;-151.14;100.00;62537.16;4995863;28;19928;-90
2023/04/05 01:18:46;;;;;;;;;;;6.60;81.00;;;-151.14;100.00;62537.16;4996086;28;19922;-90
2023/04/05 01:21:40;;;;;;;;;;;6.60;81.00;;;-151.14;100.00;62537.16;4995842;28;19928;-90
2023/04/05 01:24:15;;;;;;;;;;;6.60;81.00;;;-151.14;100.00;62537.16;4996120;28;19921;-90
2023/04/05 01:26:53;;;;;;;;;;;6.60;81.00;;;-151.14;100.00;62537.16;5012183;28;19922;-90
2023/04/05 01:29:44;;;;;;;;;;;6.60;81.00;;;-151.14;100.00;62537.16;4990783;28;19929;-90
2023/04/05 01:32:18;;;;;;;;;;;6.60;81.00;;;-151.14;100.00;62537.16;4992070;28;19928;-90
2023/04/05 01:34:49;;;;;;;;;;;6.60;80.90;;;-151.14;100.00;62537.16;5008749;28;20121;-90
2023/04/05 01:37:19;;;;;;;;;;;6.60;81.00;;;-151.14;100.00;62537.16;4992350;28;19922;-90
2023/04/05 01:39:47;;;;;;;;;;;6.60;81.00;;;-151.14;100.00;62537.16;4976096;28;19922;-90
2023/04/05 01:42:15;;;;;;;;;;;6.60;81.00;;;-151.14;100.00;62537.16;4992081;28;19922;-90
2023/04/05 01:44:44;;;;;;;;;;;6.60;81.00;;;-151.14;100.00;62537.16;4992215;28;20214;-90
2023/04/05 01:47:12;;;;;;;;;;;6.60;81.00;;;-151.14;100.00;62537.16;4992182;28;19922;-90
2023/04/05 01:49:40;;;;;;;;;;;6.60;81.00;;;-151.14;100.00;62537.16;4992305;28;19922;-90
2023/04/05 01:52:08;;;;;;;;;;;6.60;81.00;;;-151.14;100.00;62537.16;5008022;28;19922;-90
2023/04/05 01:54:36;;;;;;;;;;;6.60;80.90;;;-151.14;100.00;62537.16;4991939;28;19928;-91
2023/04/05 01:57:05;;;;;;;;;;;6.60;81.00;;;-151.14;100.00;62537.16;4993172;28;19922;-90
2023/04/05 01:59:33;;;;;;;;;;;6.60;81.00;;;-151.14;100.00;62537.16;4991801;28;19921;-91
2023/04/05 02:02:02;;;;;;;;;;;6.60;81.00;;;-151.14;100.00;62537.16;4994963;28;19921;-90
2023/04/05 02:04:31;;;;;;;;;;;6.60;81.00;;;-151.14;100.00;62537.16;4979664;28;19922;-90
2023/04/05 02:06:59;;;;;;;;;;;6.50;81.00;;;-151.14;100.00;62537.16;4975583;28;19928;-90
2023/04/05 02:09:27;;;;;;;;;;;6.60;81.00;;;-151.14;100.00;62537.16;4975850;28;19928;-90
2023/04/05 02:11:56;;;;;;;;;;;6.50;81.10;;;-151.14;100.00;62537.16;4991640;28;19922;-90
2023/04/05 02:14:24;;;;;;;;;;;6.50;81.10;;;-151.14;100.00;62537.16;4975700;28;19973;-89
2023/04/05 02:16:54;;;;;;;;;;;6.60;81.90;;;-151.14;100.00;62537.16;4991723;28;19928;-90
2023/04/05 02:19:24;;;;;;;;;;;6.50;81.10;;;-151.14;100.00;62537.16;4975106;28;19922;-90
2023/04/05 02:21:53;;;;;;;;;;;6.60;81.10;;;-151.14;100.00;62537.16;5007618;28;19928;-90
2023/04/05 02:24:21;;;;;;;;;;;6.50;81.10;;;-151.14;100.00;62537.16;4991664;28;19922;-90
2023/04/05 02:26:50;;;;;;;;;;;6.50;81.20;;;-151.14;100.00;62537.16;4991715;28;19929;-90
2023/04/05 02:29:18;;;;;;;;;;;6.50;81.20;;;-151.14;100.00;62537.16;4975442;28;19928;-90
2023/04/05 02:31:46;;;;;;;;;;;6.50;81.20;;;-151.14;100.00;62537.16;4975133;28;19921;-90
2023/04/05 02:34:14;;;;;;;;;;;6.50;81.10;;;-151.14;100.00;62537.16;4975456;28;19922;-90
2023/04/05 02:36:44;;;;;;;;;;;6.50;81.10;;;-151.14;100.00;62537.16;4975357;28;19922;-90
2023/04/05 02:39:13;;;;;;;;;;;6.60;81.10;;;-151.14;100.00;62537.16;4975410;28;19922;-90
2023/04/05 02:41:41;;;;;;;;;;;6.50;81.10;;;-151.14;100.00;62537.16;4991379;28;19928;-90
2023/04/05 02:44:11;;;;;;;;;;;6.50;81.10;;;-151.14;100.00;62537.16;4982758;28;19921;-89
2023/04/05 02:46:39;;;;;;;;;;;6.50;81.20;;;-151.14;100.00;62537.16;5012005;28;20224;-90
2023/04/05 02:49:07;;;;;;;;;;;6.50;81.20;;;-151.14;100.00;62537.16;4988411;28;19928;-90
2023/04/05 02:51:37;;;;;;;;;;;6.60;81.10;;;-151.14;100.00;62537.16;4974691;28;19929;-90
2023/04/05 02:54:10;;;;;;;;;;;6.50;81.10;;;-151.14;100.00;62537.16;4991455;28;19922;-90
2023/04/05 02:56:38;;;;;;;;;;;6.50;81.20;;;-151.14;100.00;62537.16;4974903;28;20141;-90
2023/04/05 02:59:13;;;;;;;;;;;6.50;81.10;;;-151.14;100.00;62537.16;4975189;28;20233;-90
2023/04/05 03:01:43;;;;;;;;;;;6.50;81.20;;;-151.14;100.00;62537.16;4976266;28;19928;-89
2023/04/05 03:04:17;;;;;;;;;;;6.50;81.10;;;-151.14;100.00;62537.16;4994797;28;19921;-90
2023/04/05 03:06:47;;;;;;;;;;;6.50;81.20;;;-151.14;100.00;62537.16;4978491;28;19922;-90
2023/04/05 03:09:19;;;;;;;;;;;6.50;81.20;;;-151.14;100.00;62537.16;4978649;28;19922;-90
2023/04/05 03:11:53;;;;;;;;;;;6.50;81.20;;;-151.14;100.00;62537.16;4994486;28;19921;-90
2023/04/05 03:14:21;;;;;;;;;;;6.50;81.20;;;-151.14;100.00;62537.16;4994647;28;19928;-90
2023/04/05 03:16:49;;;;;;;;;;;6.50;81.20;;;-151.14;100.00;62537.16;4994383;28;20130;-90
2023/04/05 03:19:27;;;;;;;;;;;6.50;81.20;;;-151.14;100.00;62537.16;4978343;28;19922;-90
2023/04/05 03:22:02;;;;;;;;;;;6.50;81.20;;;-151.14;100.00;62537.16;4994416;28;20205;-90
2023/04/05 03:24:35;;;;;;;;;;;6.50;81.20;;;-151.14;100.00;62537.16;4978285;28;19928;-90
2023/04/05 03:27:06;;;;;;;;;;;6.50;81.20;;;-151.14;100.00;62537.16;4994496;28;19928;-90
2023/04/05 03:29:55;;;;;;;;;;;6.50;81.20;;;-151.14;100.00;62537.16;4978363;28;20095;-89
2023/04/05 03:32:23;;;;;;;;;;;6.50;81.20;;;-151.14;100.00;62537.16;4993825;28;19928;-89
2023/04/05 03:34:59;;;;;;;;;;;6.50;81.30;;;-151.14;100.00;62537.16;4978169;28;19936;-90
2023/04/05 03:37:27;;;;;;;;;;;6.50;81.20;;;-151.14;100.00;62537.16;4977853;28;19928;-89
2023/04/05 03:40:09;;;;;;;;;;;6.50;81.30;;;-151.14;100.00;62537.16;4985272;28;20116;-90
2023/04/05 03:42:37;;;;;;;;;;;6.50;81.30;;;-151.14;100.00;62537.16;4997186;28;19927;-89
2023/04/05 03:45:06;;;;;;;;;;;6.50;81.20;;;-151.14;100.00;62537.16;4997382;28;19922;-89
2023/04/05 03:47:35;;;;;;;;;;;6.50;81.30;;;-151.14;100.00;62537.16;4997310;28;19928;-89
2023/04/05 03:50:07;;;;;;;;;;;6.50;81.20;;;-151.14;100.00;62537.16;5013572;28;19928;-89
2023/04/05 03:52:36;;;;;;;;;;;6.50;81.30;;;-151.14;100.00;62537.16;4996654;28;19921;-90
2023/04/05 03:55:08;;;;;;;;;;;6.50;81.30;;;-151.14;100.00;62537.16;5013444;28;19928;-90
2023/04/05 03:57:37;;;;;;;;;;;6.50;81.30;;;-151.14;100.00;62537.16;4997059;28;20128;-90
2023/04/05 04:00:17;;;;;;;;;;;6.50;81.30;;;-151.14;100.00;62537.16;4997057;28;19922;-89
2023/04/05 04:02:45;;;;;;;;;;;6.50;81.20;;;-151.14;100.00;62537.16;5012829;28;19985;-90
2023/04/05 04:05:17;;;;;;;;;;;6.50;81.30;;;-151.14;100.00;62537.16;5013441;28;19921;-90
2023/04/05 04:07:47;;;;;;;;;;;6.50;81.30;;;-151.14;100.00;62537.16;5013278;28;19921;-90
2023/04/05 04:10:17;;;;;;;;;;;6.50;81.30;;;-151.14;100.00;62537.16;4996935;28;20248;-90
2023/04/05 04:12:49;;;;;;;;;;;6.50;81.30;;;-151.14;100.00;62537.16;5011962;28;19922;-90
2023/04/05 04:15:19;;;;;;;;;;;6.50;81.20;;;-151.14;100.00;62537.16;4996818;28;19921;-89
2023/04/05 04:18:22;;;;;;;;;;;6.50;81.30;;;-151.14;100.00;62537.16;5015407;28;19921;-89
2023/04/05 04:21:15;;;;;;;;;;;6.50;81.30;;;-151.14;100.00;62537.16;4996483;28;19921;-89
2023/04/05 04:24:04;;;;;;;;;;;6.50;81.30;;;-151.14;100.00;62537.16;4996742;28;19921;-90
2023/04/05 04:26:54;;;;;;;;;;;6.50;81.30;;;-151.14;100.00;62537.16;5012526;28;19921;-90
2023/04/05 04:29:45;;;;;;;;;;;6.50;81.30;;;-151.14;100.00;62537.16;4996432;28;19921;-90
2023/04/05 04:35:29;;;;;;;;;;;6.50;81.20;;;-151.14;100.00;62537.16;4993611;28;19922;-89
2023/04/05 04:38:06;;;;;;;;;;;6.50;81.30;;;-151.14;100.00;62537.16;4977080;28;19936;-90
2023/04/05 04:40:46;;;;;;;;;;;6.50;81.30;;;-151.14;100.00;62537.16;4976819;28;20143;-89
2023/04/05 04:43:53;;;;;;;;;;;6.50;81.20;;;-151.14;100.00;62537.16;4993762;28;19975;-89
2023/04/05 04:46:54;;;;;;;;;;;6.50;81.30;;;-151.14;100.00;62537.16;4982254;28;19936;-90
2023/04/05 04:49:40;;;;;;;;;;;6.50;81.30;;;-151.14;100.00;62537.16;5009352;28;19922;-90
2023/04/05 04:52:08;;;;;;;;;;;6.50;81.30;;;-151.14;100.00;62537.16;4990735;28;19925;-90
2023/04/05 04:54:41;;;;;;;;;;;6.50;81.20;;;-151.14;100.00;62537.16;4996241;28;19921;-89
2023/04/05 04:57:09;;;;;;;;;;;6.50;81.40;;;-151.14;100.00;62537.16;4996570;28;19922;-90
2023/04/05 04:59:39;;;;;;;;;;;6.50;81.20;;;-151.14;100.00;62537.16;4996125;28;19935;-90
2023/04/05 05:02:09;;;;;;;;;;;6.50;81.20;;;-151.14;100.00;62537.16;4995836;28;19928;-90
2023/04/05 05:04:40;;;;;;;;;;;6.50;81.30;;;-151.14;100.00;62537.16;5012506;28;19922;-90
2023/04/05 05:07:09;;;;;;;;;;;6.50;81.20;;;-151.14;100.00;62537.16;5013406;28;20141;-90
2023/04/05 05:09:37;;;;;;;;;;;6.50;81.20;;;-151.14;100.00;62537.16;5028598;28;19927;-90
2023/04/05 05:12:06;;;;;;;;;;;6.50;81.30;;;-151.14;100.00;62537.16;4995795;28;19928;-90
2023/04/05 05:14:34;;;;;;;;;;;6.50;81.30;;;-151.14;100.00;62537.16;4995881;28;20120;-90
2023/04/05 05:17:04;;;;;;;;;;;6.50;81.30;;;-151.14;100.00;62537.16;4995990;28;19928;-90
2023/04/05 05:19:32;;;;;;;;;;;6.50;81.30;;;-151.14;100.00;62537.16;4995743;28;19921;-90
2023/04/05 05:22:00;;;;;;;;;;;6.50;81.30;;;-151.14;100.00;62537.16;4995375;28;19928;-89
2023/04/05 05:24:28;;;;;;;;;;;6.50;81.30;;;-151.14;100.00;62537.16;4995219;28;19929;-89
2023/04/05 05:26:56;;;;;;;;;;;6.50;81.20;;;-151.14;100.00;62537.16;4995654;28;19922;-90
2023/04/05 05:29:24;;;;;;;;;;;6.50;81.20;;;-151.14;100.00;62537.16;4995759;28;19921;-89
2023/04/05 05:31:54;;;;;;;;;;;6.50;81.30;;;-151.14;100.00;62537.16;4988495;28;19952;-90
2023/04/05 05:34:24;;;;;;;;;;;6.50;81.30;;;-151.14;100.00;62537.16;4975936;28;19922;-90
2023/04/05 05:36:58;;;;;;;;;;;6.50;81.30;;;-151.14;100.00;62537.16;4975862;28;19922;-90
2023/04/05 05:39:26;;;;;;;;;;;6.50;81.30;;;-151.14;100.00;62537.16;4993381;28;19922;-88
2023/04/05 05:41:54;;;;;;;;;;;6.50;81.30;;;-151.14;100.00;62537.16;5008443;28;19928;-90
2023/04/05 05:44:22;;;;;;;;;;;6.50;81.30;;;-151.14;100.00;62537.16;4976077;28;20210;-90
2023/04/05 05:46:50;;;;;;;;;;;6.50;81.20;;;-151.14;100.00;62537.16;4992249;28;19922;-89
2023/04/05 05:49:18;;;;;;;;;;;6.50;81.30;;;-151.14;100.00;62537.16;4992205;28;19922;-90
2023/04/05 05:51:47;;;;;;;;;;;6.50;81.20;;;-151.14;100.00;62537.16;4975731;28;19944;-89
2023/04/05 05:54:16;;;;;;;;;;;6.50;81.20;;;-151.14;100.00;62537.16;4975861;28;19921;-90
2023/04/05 05:56:44;;;;;;;;;;;6.50;81.20;;;-151.14;100.00;62537.16;5008312;28;20239;-90
2023/04/05 05:59:12;;;;;;;;;;;6.50;81.10;;;-151.14;100.00;62537.16;4991967;28;20117;-90
2023/04/05 06:01:41;;;;;;;;;;;6.50;81.10;;;-151.14;100.00;62537.16;4991700;28;19922;-89
2023/04/05 06:04:09;;;;;;;;;;;6.50;81.00;;;-151.14;100.00;62537.16;4991952;28;19928;-89
2023/04/05 06:06:37;;;;;;;;;;;6.50;81.00;;;-151.14;100.00;62537.16;5008132;28;20214;-90
2023/04/05 06:09:07;;;;;;;;;;;6.50;81.00;;;-151.14;100.00;62537.16;4975593;28;19922;-90
2023/04/05 06:11:35;;;;;;;;;;;6.60;80.90;;;-151.14;100.00;62537.16;4991727;28;20113;-90
2023/04/05 06:14:03;;;;;;;;;;;6.60;80.80;;;-151.14;100.00;62537.16;4975559;28;19922;-89
2023/04/05 06:16:31;;;;;;;;;;;6.60;80.80;;;-151.14;100.00;62537.16;4991866;28;20209;-90
2023/04/05 06:18:59;;;;;;;;;;;6.60;80.80;;;-151.14;100.00;62537.16;4975508;28;19928;-89
2023/04/05 06:21:27;;;;;;;;;;;6.60;80.80;;;-151.14;100.00;62537.16;4991724;28;19922;-89
2023/04/05 06:23:55;;;;;;;;;;;6.60;80.80;;;-151.14;100.00;62537.16;4975446;28;19922;-90
2023/04/05 06:26:27;;;;;;;;;;;6.60;80.80;;;-151.14;100.00;62537.16;5007885;28;20122;-90
2023/04/05 06:28:55;;;;;;;;;;;6.60;80.70;;;-151.14;100.00;62537.16;4991623;28;19984;-89
2023/04/05 06:31:26;;;;;;;;;;;6.60;80.80;;;-151.14;100.00;62537.16;4991338;28;19928;-89
2023/04/05 06:33:55;;;;;;;;;;;6.60;80.60;;;-151.14;100.00;62537.16;4975440;28;19928;-89
2023/04/05 06:36:23;;;;;;;;;;;6.60;80.70;;;-151.14;100.00;62537.16;5007089;28;19921;-89
2023/04/05 06:38:51;;;;;;;;;;;6.60;80.80;;;-151.14;100.00;62537.16;4975429;28;19921;-89
2023/04/05 06:41:19;;;;;;;;;;;6.60;80.70;;;-151.14;100.00;62537.16;4992242;28;19932;-89
2023/04/05 06:43:48;;;;;;;;;;;6.60;80.70;;;-151.14;100.00;62537.16;4975334;28;19928;-89
2023/04/05 06:46:16;;;;;;;;;;;6.60;80.80;;;-151.14;100.00;62537.16;5007662;28;20113;-89
2023/04/05 06:48:46;;;;;;;;;;;6.60;80.80;;;-151.14;100.00;62537.16;4991314;28;19922;-89
2023/04/05 06:51:14;;;;;;;;;;;6.60;80.80;;;-151.14;100.00;62537.16;4991037;28;19922;-89
2023/04/05 06:53:42;;;;;;;;;;;6.60;80.80;;;-151.14;100.00;62537.16;4975184;28;20121;-88
2023/04/05 06:56:11;;;;;;;;;;;6.60;80.60;;;-151.14;100.00;62537.16;5007633;28;19922;-90
2023/04/05 06:58:39;;;;;;;;;;;6.60;80.50;;;-151.14;100.00;62537.16;5008652;28;19929;-89
2023/04/05 07:01:08;;;;;;;;;;;6.60;80.40;;;-151.14;100.00;62537.16;5006710;28;19944;-90
2023/04/05 07:03:36;;;;;;;;;;;6.60;80.30;;;-151.14;100.00;62537.16;4990724;28;19922;-88
2023/04/05 07:06:05;;;;;;;;;;;6.60;80.20;;;-151.14;100.00;62537.16;4990646;28;19952;-87
2023/04/05 07:08:33;;;;;;;;;;;6.60;80.00;;;-151.14;100.00;62537.16;5022271;28;19970;-88
2023/04/05 07:11:01;;;;;;;;;;;6.60;79.90;;;-151.14;100.00;62537.16;5009870;28;19921;-87
2023/04/05 07:13:29;;;;;;;;;;;6.60;79.80;;;-151.14;100.00;62537.16;5026532;28;19921;-88
2023/04/05 07:16:00;;;;;;;;;;;6.60;79.60;;;-151.14;100.00;62537.16;5006961;28;19921;-88
2023/04/05 07:18:30;;;;;;;;;;;6.60;79.60;;;-151.14;100.00;62537.16;5026322;28;19922;-88
2023/04/05 07:21:00;;;;;;;;;;;6.60;79.70;;;-151.14;100.00;62537.16;5026080;28;19922;-88
2023/04/05 07:23:28;;;;;;;;;;;6.60;79.60;;;-151.14;100.00;62537.16;5026423;28;19928;-88
2023/04/05 07:26:03;;;;;;;;;;;6.60;80.50;;;-151.14;100.00;62537.16;5006614;28;19932;-88
2023/04/05 07:28:31;;;;;;;;;;;6.60;79.50;;;-151.14;100.00;62537.16;4990710;28;19928;-88
2023/04/05 07:30:59;;;;;;;;;;;6.60;79.60;;;-151.14;100.00;62537.16;5006587;28;19928;-88
2023/04/05 07:33:29;;;;;;;;;;;6.60;79.40;;;-151.14;100.00;62537.16;5006641;28;19937;-89
2023/04/05 07:35:57;;;;;;;;;;;6.60;79.50;;;-151.14;100.00;62537.16;4990343;28;19928;-89
2023/04/05 07:38:27;;;;;;;;;;;6.60;80.10;;;-151.14;100.00;62537.16;4991705;28;19921;-89
2023/04/05 07:40:55;;;;;;;;;;;6.70;79.50;;;-151.14;100.00;62537.16;4993153;28;19922;-89
2023/04/05 07:43:28;;;;;;;;;;;6.70;80.00;;;-151.14;100.00;62537.16;5009774;28;19936;-89
2023/04/05 07:46:01;;;;;;;;;;;6.70;79.80;;;-151.14;100.00;62537.16;4993553;28;20430;-89
2023/04/05 07:48:30;;;;;;;;;;;6.70;79.80;;;-151.14;100.00;62537.16;4995561;28;20113;-89
2023/04/05 07:51:04;;;;;;;;;;;6.70;79.80;;;-151.14;100.00;62537.16;4996377;28;20244;-89
2023/04/05 07:53:32;;;;;;;;;;;6.70;79.60;;;-151.14;100.00;62537.16;5012548;28;19968;-89
2023/04/05 07:56:03;;;;;;;;;;;6.70;79.80;;;-151.14;100.00;62537.16;5012965;28;19935;-89
2023/04/05 07:58:33;;;;;;;;;;;6.70;79.70;;;-151.14;100.00;62537.16;5013061;28;19921;-89
2023/04/05 08:01:01;;;;;;;;;;;6.60;79.70;;;-151.14;100.00;62537.16;4996498;28;19935;-89
2023/04/05 08:03:31;;;;;;;;;;;6.60;79.80;;;-151.14;100.00;62537.16;5012779;28;19943;-89
2023/04/05 08:05:59;;;;;;;;;;;6.60;79.70;;;-151.14;100.00;62537.16;5012995;28;19928;-88
2023/04/05 08:08:27;;;;;;;;;;;6.60;79.80;;;-151.14;100.00;62537.16;5012870;28;20120;-88
2023/04/05 08:10:55;;;;;;;;;;;6.60;79.80;;;-151.14;100.00;62537.16;5012354;28;19922;-89
2023/04/05 08:13:23;;;;;;;;;;;6.60;80.00;;;-151.14;100.00;62537.16;5012941;28;20091;-89
2023/04/05 08:15:51;;;;;;;;;;;6.60;80.00;;;-151.14;100.00;62537.16;5012603;28;20470;-89
2023/04/05 08:18:19;;;;;;;;;;;6.60;80.10;;;-151.14;100.00;62537.16;5012763;28;19921;-89
2023/04/05 08:20:53;;;;;;;;;;;6.60;80.20;;;-151.14;100.00;62537.16;5012290;28;19929;-89
2023/04/05 08:23:21;;;;;;;;;;;6.60;80.00;;;-151.14;100.00;62537.16;5012596;28;19922;-89
2023/04/05 08:25:49;;;;;;;;;;;6.60;80.10;;;-151.14;100.00;62537.16;5012699;28;20231;-88
2023/04/05 08:28:17;;;;;;;;;;;6.60;80.10;;;-151.14;100.00;62537.16;5012592;28;19928;-89
2023/04/05 08:30:46;;;;;;;;;;;6.60;80.20;;;-151.14;100.00;62537.16;4995906;28;20213;-89
2023/04/05 08:33:14;;;;;;;;;;;6.60;80.10;;;-151.14;100.00;62537.16;4996246;28;19936;-89
2023/04/05 08:35:43;;;;;;;;;;;6.60;80.20;;;-151.14;100.00;62537.16;5029382;28;19922;-90
2023/04/05 08:38:12;;;;;;;;;;;6.60;80.30;;;-151.14;100.00;62537.16;5029197;28;19921;-90
2023/04/05 08:40:42;;;;;;;;;;;6.60;80.30;;;-151.14;100.00;62537.16;4996012;28;19921;-89
2023/04/05 08:43:11;;;;;;;;;;;6.60;80.30;;;-151.14;100.00;62537.16;4996401;28;19921;-90
2023/04/05 08:45:50;;;;;;;;;;;6.60;80.40;;;-151.14;100.00;62537.16;4996320;28;19987;-90
2023/04/05 08:48:18;;;;;;;;;;;6.60;80.40;;;-151.14;100.00;62537.16;5013697;28;20243;-88
2023/04/05 08:50:51;;;;;;;;;;;6.60;80.40;;;-151.14;100.00;62537.16;4995734;28;19928;-89
2023/04/05 08:53:20;;;;;;;;;;;6.60;80.50;;;-151.14;100.00;62537.16;5012634;28;19927;-89
2023/04/05 08:55:48;;;;;;;;;;;6.60;80.50;;;-151.14;100.00;62537.16;4996362;28;19922;-90
2023/04/05 08:58:17;;;;;;;;;;;6.60;80.40;;;-151.14;100.00;62537.16;4996161;28;19929;-89
2023/04/05 09:00:45;;;;;;;;;;;6.60;80.50;;;-151.14;100.00;62537.16;4995170;28;19928;-88
2023/04/05 09:03:15;;;;;;;;;;;6.60;80.40;;;-151.14;100.00;62537.16;4995801;28;19922;-90
2023/04/05 09:05:44;;;;;;;;;;;6.60;80.50;;;-151.14;100.00;62537.16;5012423;28;19922;-89
2023/04/05 09:08:12;;;;;;;;;;;6.60;80.50;;;-151.14;100.00;62537.16;5012319;28;19921;-89
2023/04/05 09:10:42;;;;;;;;;;;6.60;80.50;;;-151.14;100.00;62537.16;5013140;28;20148;-90
2023/04/05 09:13:10;;;;;;;;;;;6.60;80.30;;;-151.14;100.00;62537.16;4995759;28;19921;-89
2023/04/05 09:15:40;;;;;;;;;;;6.60;80.50;;;-151.14;100.00;62537.16;5011763;28;20269;-89
2023/04/05 09:18:08;;;;;;;;;;;6.60;80.40;;;-151.14;100.00;62537.16;4995795;28;19922;-89
2023/04/05 09:20:36;;;;;;;;;;;6.60;80.40;;;-151.14;100.00;62537.16;5012972;28;19928;-90
2023/04/05 09:23:04;;;;;;;;;;;6.60;80.40;;;-151.14;100.00;62537.16;4995849;28;19921;-90
2023/04/05 09:25:37;;;;;;;;;;;6.60;80.20;;;-151.14;100.00;62537.16;4995581;28;19928;-89
2023/04/05 09:28:07;;;;;;;;;;;6.60;80.40;;;-151.14;100.00;62537.16;5028282;28;19930;-90
2023/04/05 09:30:36;;;;;;;;;;;6.60;80.30;;;-151.14;100.00;62537.16;4995492;28;20129;-87
2023/04/05 09:33:05;;;;;;;;;;;6.60;80.30;;;-151.14;100.00;62537.16;4995698;28;20228;-90
2023/04/05 09:35:33;;;;;;;;;;;6.60;80.20;;;-151.14;100.00;62537.16;4995395;28;19928;-91
2023/04/05 09:38:01;;;;;;;;;;;6.60;80.00;;;-151.14;100.00;62537.16;4995551;28;19928;-90
2023/04/05 09:40:44;;;;;;;;;;;6.60;80.00;;;-151.14;100.00;62537.16;4995451;28;19921;-90
2023/04/05 09:43:35;;;;;;;;;;;6.60;79.90;;;-151.14;100.00;62537.16;5011648;28;19928;-90
2023/04/05 09:46:03;;;;;;;;;;;6.60;79.80;;;-151.14;100.00;62537.16;4995546;28;19921;-90
2023/04/05 09:48:46;;;;;;;;;;;6.60;79.90;;;-151.14;100.00;62537.16;5011500;28;19950;-90
2023/04/05 09:51:14;;;;;;;;;;;6.60;80.10;;;-151.14;100.00;62537.16;4994908;28;19927;-90
2023/04/05 09:53:57;;;;;;;;;;;6.60;80.10;;;-151.14;100.00;62537.16;5011477;28;20118;-89
2023/04/05 09:56:25;;;;;;;;;;;6.70;80.30;;;-151.14;100.00;62537.16;4995147;28;20124;-90
2023/04/05 09:58:59;;;;;;;;;;;6.60;80.00;;;-151.14;100.00;62537.16;4995021;28;19927;-91
2023/04/05 10:01:28;;;;;;;;;;;6.60;80.00;;;-151.14;100.00;62537.16;5011263;28;19928;-90
2023/04/05 10:03:56;;;;;;;;;;;6.60;80.10;;;-151.14;100.00;62537.16;4995109;28;19922;-90
2023/04/05 10:06:25;;;;;;;;;;;6.60;80.10;;;-151.14;100.00;62537.16;5011563;28;19930;-90
2023/04/05 10:08:53;;;;;;;;;;;6.60;80.10;;;-151.14;100.00;62537.16;5011153;28;19940;-90
2023/04/05 10:11:21;;;;;;;;;;;6.60;79.90;;;-151.14;100.00;62537.16;5026304;28;19947;-90
2023/04/05 10:13:49;;;;;;;;;;;6.60;79.90;;;-151.14;100.00;62537.16;4995087;28;19971;-90
2023/04/05 10:16:21;;;;;;;;;;;6.70;80.00;;;-151.14;100.00;62537.16;4994738;28;19922;-89
2023/04/05 10:18:50;;;;;;;;;;;6.70;80.10;;;-151.14;100.00;62537.16;4995038;28;20213;-89
2023/04/05 10:21:20;;;;;;;;;;;6.70;80.00;;;-151.14;100.00;62537.16;4994792;28;20098;-89
2023/04/05 10:23:51;;;;;;;;;;;6.70;80.00;;;-151.14;100.00;62537.16;5012298;28;19928;-90
2023/04/05 10:26:21;;;;;;;;;;;6.70;80.00;;;-151.14;100.00;62537.16;5027432;28;20213;-90
2023/04/05 10:28:52;;;;;;;;;;;6.70;80.00;;;-151.14;100.00;62537.16;5027392;28;20094;-90
2023/04/05 10:31:25;;;;;;;;;;;6.70;80.00;;;-151.14;100.00;62537.16;5027067;28;19928;-89
2023/04/05 10:33:55;;;;;;;;;;;6.70;80.00;;;-151.14;100.00;62537.16;4994951;28;19921;-88
2023/04/05 10:36:39;;;;;;;;;;;6.70;79.90;;;-151.14;100.00;62537.16;5007983;28;19989;-90
2023/04/05 10:39:11;;;;;;;;;;;6.70;79.90;;;-151.14;100.00;62537.16;4975337;28;20251;-88
2023/04/05 10:41:42;;;;;;;;;;;6.70;79.90;;;-151.14;100.00;62537.16;4975102;28;19922;-90
2023/04/05 10:44:10;;;;;;;;;;;6.70;79.90;;;-151.14;100.00;62537.16;4975269;28;19922;-90
2023/04/05 10:46:40;;;;;;;;;;;6.70;79.90;;;-151.14;100.00;62537.16;4991413;28;19930;-90
2023/04/05 10:49:12;;;;;;;;;;;6.80;79.80;;;-151.14;100.00;62537.16;4975279;28;19921;-90
2023/04/05 10:51:42;;;;;;;;;;;6.80;79.80;;;-151.14;100.00;62537.16;5007255;28;19922;-90
2023/04/05 10:54:10;;;;;;;;;;;6.80;79.70;;;-151.14;100.00;62537.16;5007488;28;19928;-90
2023/04/05 10:56:39;;;;;;;;;;;6.80;79.70;;;-151.14;100.00;62537.16;4991234;28;19928;-90
2023/04/05 10:59:07;;;;;;;;;;;6.80;79.60;;;-151.14;100.00;62537.16;4975047;28;20210;-90
2023/04/05 11:01:35;;;;;;;;;;;6.80;79.70;;;-151.14;100.00;62537.16;4990753;28;20228;-90
2023/04/05 11:04:12;;;;;;;;;;;6.80;79.70;;;-151.14;100.00;62537.16;4991217;28;19922;-90
2023/04/05 11:06:40;;;;;;;;;;;6.80;79.70;;;-151.14;100.00;62537.16;4994090;28;19962;-90
2023/04/05 11:09:14;;;;;;;;;;;6.70;79.70;;;-151.14;100.00;62537.16;5022449;28;19967;-91
2023/04/05 11:11:42;;;;;;;;;;;6.70;79.70;;;-151.14;100.00;62537.16;4985031;28;19922;-90
2023/04/05 11:14:21;;;;;;;;;;;6.70;79.70;;;-151.14;100.00;62537.16;4974954;28;19928;-90
2023/04/05 11:16:52;;;;;;;;;;;6.70;79.80;;;-151.14;100.00;62537.16;5026679;28;19928;-90
2023/04/05 11:19:21;;;;;;;;;;;6.70;79.70;;;-151.14;100.00;62537.16;5010464;28;19921;-91
2023/04/05 11:21:49;;;;;;;;;;;6.70;79.80;;;-151.14;100.00;62537.16;4993928;28;19921;-90